Time;durP1;ratioP1;P1;durP2;ratioP2;P2;SDS_P1;SDS_P2;PMS_P1;PMS_P2;Temp;Humidity;BMP_temperature;BMP_pressure;BME280_temperature;BME280_humidity;BME280_pressure;Samples;Min_cycle;Max_cycle;Signal;HPM_P1;HPM_P2
2024/01/10 00:00:01;;;;;;;23.20;13.02;;;;;;;-1.08;60.98;98874.72;5239245;22;20175;-84
2024/01/10 00:02:07;;;;;;;21.35;12.23;;;;;;;-1.09;60.57;98860.25;5239663;22;20518;-84
2024/01/10 00:04:11;;;;;;;22.80;12.18;;;;;;;-1.18;60.15;98857.78;5240418;22;20199;-84
2024/01/10 00:06:15;;;;;;;19.75;11.18;;;;;;;-1.16;60.44;98867.13;5189004;22;20246;-84
2024/01/10 00:08:18;;;;;;;15.73;9.95;;;;;;;-1.20;60.74;98860.38;5241374;22;20179;-83
2024/01/10 00:10:21;;;;;;;20.00;9.95;;;;;;;-1.14;60.89;98857.75;5242609;22;20175;-83
2024/01/10 00:12:23;;;;;;;22.95;9.70;;;;;;;-1.13;60.60;98853.47;5241125;22;20171;-83
2024/01/10 00:14:27;;;;;;;13.95;7.55;;;;;;;-1.12;60.63;98857.72;5214492;22;20263;-83
2024/01/10 00:16:30;;;;;;;14.63;8.05;;;;;;;-1.14;60.82;98857.75;5241602;22;20171;-84
2024/01/10 00:18:35;;;;;;;15.73;8.70;;;;;;;-1.19;60.81;98854.41;5240853;22;20202;-84
2024/01/10 00:20:38;;;;;;;16.15;7.22;;;;;;;-1.15;61.15;98855.19;5214713;22;20169;-84
2024/01/10 00:22:42;;;;;;;14.35;8.18;;;;;;;-1.12;60.92;98856.00;5240718;22;20175;-84
2024/01/10 00:24:45;;;;;;;15.52;8.95;;;;;;;-1.11;60.79;98852.59;5188136;22;20197;-84
2024/01/10 00:26:48;;;;;;;16.58;8.50;;;;;;;-1.09;61.07;98853.41;5241711;22;21013;-83
2024/01/10 00:28:51;;;;;;;18.27;8.65;;;;;;;-1.05;61.04;98849.97;5188422;22;20649;-84
2024/01/10 00:31:06;;;;;;;14.10;8.38;;;;;;;-1.08;60.80;98847.44;5213731;22;20171;-84
2024/01/10 00:33:09;;;;;;;19.60;10.32;;;;;;;-1.12;61.12;98853.44;5213970;22;20173;-84
2024/01/10 00:35:14;;;;;;;16.95;8.68;;;;;;;-1.13;61.37;98854.31;5241390;22;20191;-84
2024/01/10 00:37:17;;;;;;;15.50;8.40;;;;;;;-1.04;61.56;98861.03;5241208;22;20177;-83
2024/01/10 00:39:19;;;;;;;13.50;7.85;;;;;;;-1.06;61.48;98857.66;5214333;22;20176;-84
2024/01/10 00:41:22;;;;;;;17.00;9.48;;;;;;;-1.01;61.78;98854.16;5213575;22;20186;-83
2024/01/10 00:43:25;;;;;;;16.48;9.00;;;;;;;-0.99;61.81;98849.91;5240387;22;20213;-83
2024/01/10 00:45:28;;;;;;;15.82;8.18;;;;;;;-0.98;61.50;98851.56;5213575;22;20180;-84
2024/01/10 00:47:32;;;;;;;16.63;8.20;;;;;;;-1.00;61.48;98845.66;5239835;22;20179;-84
2024/01/10 00:49:35;;;;;;;14.63;8.32;;;;;;;-0.95;61.12;98854.09;5213775;22;20175;-84
2024/01/10 00:51:40;;;;;;;16.75;8.65;;;;;;;-0.97;61.50;98849.88;5187978;22;20192;-84
2024/01/10 00:53:43;;;;;;;14.80;8.02;;;;;;;-0.99;61.62;98855.03;5188477;22;20177;-83
2024/01/10 00:55:49;;;;;;;17.73;8.95;;;;;;;-1.01;61.26;98854.16;5238546;22;20183;-83
2024/01/10 00:57:52;;;;;;;16.48;8.88;;;;;;;-1.06;61.19;98853.38;5213365;22;20172;-83
2024/01/10 00:59:55;;;;;;;17.15;8.00;;;;;;;-1.03;61.00;98855.06;5188033;22;20204;-84
2024/01/10 01:01:58;;;;;;;18.77;9.43;;;;;;;-1.02;61.30;98857.63;5213284;22;20970;-84
2024/01/10 01:04:02;;;;;;;16.65;8.80;;;;;;;-1.02;61.14;98857.63;5239881;22;20532;-84
2024/01/10 01:06:06;;;;;;;18.48;9.85;;;;;;;-1.02;61.25;98854.19;5188784;22;20181;-84
2024/01/10 01:08:10;;;;;;;19.45;9.18;;;;;;;-1.06;61.04;98855.94;5240946;22;20186;-84
2024/01/10 01:10:13;;;;;;;19.85;9.52;;;;;;;-1.10;61.06;98856.81;5240504;22;20167;-83
2024/01/10 01:12:17;;;;;;;18.42;8.82;;;;;;;-1.13;61.36;98853.47;5212080;22;20199;-83
2024/01/10 01:14:20;;;;;;;17.17;9.50;;;;;;;-1.12;62.22;98858.56;5212216;22;20691;-83
2024/01/10 01:16:23;;;;;;;17.67;9.02;;;;;;;-1.07;61.62;98868.75;5237340;22;20207;-84
2024/01/10 01:18:26;;;;;;;18.80;8.90;;;;;;;-1.12;61.67;98861.13;5241497;22;20184;-84
2024/01/10 01:20:30;;;;;;;16.00;8.75;;;;;;;-1.14;61.73;98857.75;5213446;22;20172;-84
2024/01/10 01:22:33;;;;;;;18.23;9.60;;;;;;;-1.09;61.79;98863.66;5240521;22;20179;-84
2024/01/10 01:24:38;;;;;;;15.38;8.77;;;;;;;-1.12;61.42;98865.41;5236289;22;20679;-84
2024/01/10 01:26:41;;;;;;;19.80;9.65;;;;;;;-1.18;61.91;98863.75;5240004;22;20171;-84
2024/01/10 01:28:44;;;;;;;18.33;9.85;;;;;;;-1.18;61.83;98860.34;5241723;22;20674;-83
2024/01/10 01:30:48;;;;;;;17.42;9.95;;;;;;;-1.17;61.83;98873.13;5213325;22;20645;-84
2024/01/10 01:32:51;;;;;;;18.75;8.68;;;;;;;-1.20;61.97;98868.03;5212699;22;20206;-85
2024/01/10 01:34:53;;;;;;;19.92;9.48;;;;;;;-1.18;61.87;98871.41;5239868;22;20175;-86
2024/01/10 01:36:56;;;;;;;18.00;8.90;;;;;;;-1.21;61.99;98861.22;5238886;22;20217;-86
2024/01/10 01:39:00;;;;;;;16.67;9.50;;;;;;;-1.16;61.92;98868.84;5212729;22;20489;-85
2024/01/10 01:41:05;;;;;;;17.25;8.65;;;;;;;-1.18;61.87;98861.19;5212405;22;20262;-85
2024/01/10 01:43:23;;;;;;;17.38;9.23;;;;;;;-1.15;61.84;98860.31;5239818;22;20375;-85
2024/01/10 01:45:26;;;;;;;14.77;8.30;;;;;;;-1.20;62.03;98856.97;5240484;22;20191;-86
2024/01/10 01:47:29;;;;;;;20.25;9.65;;;;;;;-1.16;62.09;98854.34;5241020;22;20237;-86
2024/01/10 01:49:33;;;;;;;21.00;10.25;;;;;;;-1.18;62.12;98857.78;5212582;22;20198;-85
2024/01/10 01:51:36;;;;;;;18.70;9.15;;;;;;;-1.18;62.29;98863.75;5212821;22;20168;-85
2024/01/10 01:53:39;;;;;;;20.17;10.10;;;;;;;-1.19;62.02;98862.06;5212709;22;20180;-85
2024/01/10 01:55:43;;;;;;;22.10;12.30;;;;;;;-1.27;61.69;98861.28;5240045;22;20167;-85
2024/01/10 01:57:48;;;;;;;25.48;11.60;;;;;;;-1.28;62.31;98856.19;5213536;22;20586;-85
2024/01/10 01:59:51;;;;;;;17.45;8.90;;;;;;;-1.32;62.35;98857.94;5213852;22;20196;-85
2024/01/10 02:01:55;;;;;;;22.63;10.88;;;;;;;-1.37;62.35;98853.72;5212898;22;20248;-85
2024/01/10 02:03:59;;;;;;;20.83;9.60;;;;;;;-1.41;62.52;98857.19;5239707;22;20237;-86
2024/01/10 02:06:03;;;;;;;21.33;10.07;;;;;;;-1.39;62.51;98853.72;5186963;22;20228;-86
2024/01/10 02:08:07;;;;;;;16.05;8.63;;;;;;;-1.40;62.50;98857.16;5212638;22;20605;-85
2024/01/10 02:10:10;;;;;;;21.98;10.38;;;;;;;-1.42;62.55;98852.91;5238832;22;20184;-85
2024/01/10 02:12:13;;;;;;;18.70;10.05;;;;;;;-1.43;62.66;98858.88;5212084;22;20172;-85
2024/01/10 02:14:18;;;;;;;18.77;10.70;;;;;;;-1.44;63.08;98846.97;5212797;22;20168;-86
2024/01/10 02:16:21;;;;;;;16.25;9.35;;;;;;;-1.42;62.78;98852.06;5240596;22;20202;-85
2024/01/10 02:18:24;;;;;;;16.55;8.73;;;;;;;-1.42;62.99;98852.91;5212784;22;20176;-85
2024/01/10 02:20:27;;;;;;;20.55;8.82;;;;;;;-1.46;62.86;98851.22;5239538;22;20168;-85
2024/01/10 02:22:31;;;;;;;16.60;9.30;;;;;;;-1.44;62.85;98852.09;5238615;22;20968;-86
2024/01/10 02:24:34;;;;;;;18.55;9.13;;;;;;;-1.42;63.00;98854.63;5187666;22;20837;-85
2024/01/10 02:26:38;;;;;;;20.42;9.73;;;;;;;-1.47;62.83;98851.25;5185378;22;20183;-85
2024/01/10 02:28:41;;;;;;;18.77;9.60;;;;;;;-1.52;62.87;98842.78;5212727;22;20277;-85
2024/01/10 02:30:47;;;;;;;19.65;10.70;;;;;;;-1.58;62.99;98835.16;5213112;22;20707;-85
2024/01/10 02:32:50;;;;;;;17.77;9.70;;;;;;;-1.54;62.90;98837.69;5239279;22;20851;-85
2024/01/10 02:34:52;;;;;;;17.60;9.82;;;;;;;-1.55;63.00;98841.09;5210470;22;20175;-85
2024/01/10 02:36:55;;;;;;;18.15;8.52;;;;;;;-1.51;63.11;98847.88;5239809;22;20167;-84
2024/01/10 02:38:58;;;;;;;15.32;9.02;;;;;;;-1.56;62.79;98841.13;5238237;22;20340;-85
2024/01/10 02:41:02;;;;;;;17.80;9.13;;;;;;;-1.52;63.20;98835.94;5186924;22;20176;-84
2024/01/10 02:43:08;;;;;;;19.42;9.57;;;;;;;-1.52;63.23;98840.22;5210656;22;20259;-84
2024/01/10 02:45:11;;;;;;;15.90;9.25;;;;;;;-1.56;62.93;98846.25;5213248;22;20195;-83
2024/01/10 02:47:14;;;;;;;15.95;9.15;;;;;;;-1.59;62.91;98836.88;5213103;22;20168;-83
2024/01/10 02:49:18;;;;;;;18.17;9.70;;;;;;;-1.62;63.00;98829.25;5240830;22;20179;-83
2024/01/10 02:51:22;;;;;;;17.25;9.50;;;;;;;-1.64;63.22;98830.13;5212765;22;20181;-83
2024/01/10 02:53:25;;;;;;;19.20;9.27;;;;;;;-1.61;63.35;98830.09;5239630;22;20175;-84
2024/01/10 02:55:27;;;;;;;16.17;8.30;;;;;;;-1.58;63.32;98835.16;5213002;22;20168;-83
2024/01/10 02:57:30;;;;;;;22.98;9.52;;;;;;;-1.64;63.39;98825.00;5212645;22;20171;-83
2024/01/10 02:59:35;;;;;;;20.88;9.10;;;;;;;-1.64;63.67;98830.13;5239337;22;20186;-83
2024/01/10 03:01:38;;;;;;;16.35;8.43;;;;;;;-1.62;63.62;98831.81;5211755;22;20623;-83
2024/01/10 03:03:44;;;;;;;17.90;9.63;;;;;;;-1.69;63.92;98825.03;5211587;22;20184;-84
2024/01/10 03:05:47;;;;;;;16.48;8.50;;;;;;;-1.67;63.69;98827.59;5212817;22;20207;-83
2024/01/10 03:07:50;;;;;;;17.30;9.73;;;;;;;-1.71;63.76;98820.81;5238697;22;20186;-83
2024/01/10 03:09:53;;;;;;;19.25;9.10;;;;;;;-1.71;64.06;98820.81;5211920;22;20176;-84
2024/01/10 03:11:56;;;;;;;18.77;9.63;;;;;;;-1.71;63.96;98815.72;5237317;22;20171;-83
2024/01/10 03:14:03;;;;;;;21.40;9.75;;;;;;;-1.70;64.05;98817.38;5241067;22;20232;-84
2024/01/10 03:16:08;;;;;;;21.25;9.93;;;;;;;-1.73;64.06;98822.53;5240119;22;20174;-83
2024/01/10 03:18:11;;;;;;;19.80;9.90;;;;;;;-1.74;63.67;98813.19;5212675;22;20592;-84
2024/01/10 03:20:15;;;;;;;19.77;10.40;;;;;;;-1.74;63.92;98816.56;5212014;22;20267;-83
2024/01/10 03:22:17;;;;;;;14.88;8.05;;;;;;;-1.75;64.28;98817.44;5238819;22;20191;-83
2024/01/10 03:24:24;;;;;;;16.20;9.07;;;;;;;-1.79;64.40;98814.91;5213453;22;20180;-84
2024/01/10 03:26:27;;;;;;;20.98;10.45;;;;;;;-1.83;64.34;98813.25;5239175;22;20187;-83
2024/01/10 03:28:30;;;;;;;15.25;8.43;;;;;;;-1.75;64.38;98819.97;5212600;22;20172;-83
2024/01/10 03:30:34;;;;;;;16.30;9.35;;;;;;;-1.77;64.22;98815.78;5212430;22;20631;-83
2024/01/10 03:32:38;;;;;;;20.60;9.68;;;;;;;-1.76;64.23;98815.75;5186250;22;20251;-84
2024/01/10 03:34:42;;;;;;;16.95;9.02;;;;;;;-1.74;64.24;98821.69;5239682;22;20195;-84
2024/01/10 03:36:45;;;;;;;21.52;9.57;;;;;;;-1.82;64.34;98812.38;5239959;22;20179;-84
2024/01/10 03:38:48;;;;;;;19.08;9.68;;;;;;;-1.85;64.27;98813.28;5239599;22;20182;-84
2024/01/10 03:40:52;;;;;;;19.95;9.85;;;;;;;-1.86;64.49;98818.41;5237857;22;20176;-83
2024/01/10 03:42:55;;;;;;;16.65;9.80;;;;;;;-1.90;65.16;98816.72;5186063;22;20173;-83
2024/01/10 03:44:58;;;;;;;19.52;10.52;;;;;;;-1.85;64.92;98814.97;5212662;22;20172;-83
2024/01/10 03:47:01;;;;;;;20.92;10.45;;;;;;;-1.90;65.17;98803.94;5186593;22;20282;-83
2024/01/10 03:49:06;;;;;;;18.88;9.82;;;;;;;-1.90;65.39;98809.06;5240369;22;20179;-83
2024/01/10 03:51:10;;;;;;;19.65;9.50;;;;;;;-1.91;65.43;98812.47;5211607;22;20176;-84
2024/01/10 03:53:13;;;;;;;19.75;9.80;;;;;;;-1.84;65.24;98809.00;5186694;22;20176;-83
2024/01/10 03:55:16;;;;;;;18.80;10.07;;;;;;;-1.78;65.21;98806.41;5238998;22;20172;-83
2024/01/10 03:57:19;;;;;;;15.20;8.95;;;;;;;-1.70;65.39;98812.28;5240554;22;20258;-83
2024/01/10 03:59:21;;;;;;;16.92;9.00;;;;;;;-1.66;65.35;98816.50;5238798;22;20210;-83
2024/01/10 04:01:25;;;;;;;17.38;9.38;;;;;;;-1.64;64.96;98820.75;5210585;22;20271;-83
2024/01/10 04:03:27;;;;;;;17.45;8.93;;;;;;;-1.64;65.24;98817.34;5213060;22;20274;-83
2024/01/10 04:05:31;;;;;;;15.73;9.70;;;;;;;-1.61;64.99;98807.09;5240931;22;20178;-83
2024/01/10 04:07:35;;;;;;;17.08;9.50;;;;;;;-1.55;65.42;98817.25;5241718;22;20167;-84
2024/01/10 04:09:38;;;;;;;17.90;9.70;;;;;;;-1.48;65.25;98812.06;5239845;22;20178;-83
2024/01/10 04:11:41;;;;;;;20.50;10.30;;;;;;;-1.41;65.09;98812.00;5241255;22;20174;-83
2024/01/10 04:13:44;;;;;;;19.60;10.27;;;;;;;-1.38;64.86;98813.69;5240256;22;20172;-83
2024/01/10 04:15:47;;;;;;;20.45;9.98;;;;;;;-1.35;64.94;98809.38;5188415;22;20200;-83
2024/01/10 04:17:51;;;;;;;17.88;10.55;;;;;;;-1.35;64.92;98817.03;5241990;22;20175;-80
2024/01/10 04:19:54;;;;;;;17.17;9.48;;;;;;;-1.32;64.55;98814.44;5188940;22;20192;-83
2024/01/10 04:21:59;;;;;;;18.27;9.65;;;;;;;-1.30;64.32;98812.72;5212164;22;20206;-83
2024/01/10 04:24:02;;;;;;;17.67;9.75;;;;;;;-1.28;64.45;98817.81;5240007;22;20183;-83
2024/01/10 04:26:05;;;;;;;17.23;9.50;;;;;;;-1.33;64.32;98807.63;5239018;22;20270;-83
2024/01/10 04:28:11;;;;;;;18.98;9.82;;;;;;;-1.27;64.47;98817.78;5214658;22;20172;-84
2024/01/10 04:30:14;;;;;;;18.13;10.13;;;;;;;-1.29;64.56;98814.41;5213828;22;20176;-83
2024/01/10 04:32:17;;;;;;;20.80;9.70;;;;;;;-1.31;64.37;98821.28;5240516;22;20172;-83
2024/01/10 04:34:20;;;;;;;20.70;10.50;;;;;;;-1.30;64.54;98806.75;5214069;22;20211;-83
2024/01/10 04:36:23;;;;;;;19.33;9.68;;;;;;;-1.37;64.61;98815.34;5214285;22;20221;-83
2024/01/10 04:38:27;;;;;;;19.75;10.45;;;;;;;-1.31;64.82;98811.03;5213435;22;20172;-83
2024/01/10 04:40:30;;;;;;;19.95;9.35;;;;;;;-1.24;64.98;98816.94;5239144;22;20171;-83
2024/01/10 04:42:33;;;;;;;19.55;10.60;;;;;;;-1.18;64.81;98810.03;5184757;22;20204;-83
2024/01/10 04:44:35;;;;;;;20.23;10.60;;;;;;;-1.13;64.61;98817.66;5239552;22;20241;-84
2024/01/10 04:46:39;;;;;;;21.45;10.25;;;;;;;-1.13;64.75;98815.94;5213472;22;20636;-83
2024/01/10 04:48:43;;;;;;;21.90;10.43;;;;;;;-1.07;64.65;98817.59;5188654;22;20180;-85
2024/01/10 04:50:46;;;;;;;21.25;10.55;;;;;;;-1.16;64.39;98818.53;5240596;22;20183;-84
2024/01/10 04:52:50;;;;;;;16.52;10.10;;;;;;;-1.18;64.83;98812.59;5211751;22;20691;-83
2024/01/10 04:54:53;;;;;;;22.27;10.07;;;;;;;-1.19;64.89;98816.03;5213355;22;20196;-84
2024/01/10 04:56:56;;;;;;;20.95;10.65;;;;;;;-1.14;64.98;98819.38;5188212;22;20863;-83
2024/01/10 04:58:59;;;;;;;19.30;10.52;;;;;;;-1.11;65.10;98821.03;5240624;22;20245;-83
2024/01/10 05:01:03;;;;;;;21.65;11.13;;;;;;;-1.05;65.24;98826.94;5213131;22;20671;-85
2024/01/10 05:03:06;;;;;;;20.90;10.70;;;;;;;-1.01;65.10;98823.47;5212150;22;20267;-85
2024/01/10 05:05:09;;;;;;;20.20;10.48;;;;;;;-0.99;64.84;98821.75;5213872;22;20521;-86
2024/01/10 05:07:12;;;;;;;19.52;10.80;;;;;;;-0.99;64.74;98821.75;5212697;22;20254;-85
2024/01/10 05:09:17;;;;;;;20.42;10.80;;;;;;;-1.03;64.69;98825.22;5240876;22;20163;-85
2024/01/10 05:11:21;;;;;;;17.92;10.27;;;;;;;-0.99;64.77;98828.56;5213233;22;20177;-86
2024/01/10 05:13:25;;;;;;;20.98;11.10;;;;;;;-0.98;65.29;98826.00;5212289;22;20168;-85
2024/01/10 05:15:28;;;;;;;17.63;9.93;;;;;;;-0.94;65.38;98825.94;5187825;22;20908;-83
2024/01/10 05:17:33;;;;;;;18.38;10.63;;;;;;;-0.99;64.84;98826.88;5213177;22;20200;-82
2024/01/10 05:19:36;;;;;;;23.25;11.10;;;;;;;-0.98;64.91;98833.66;5241380;22;20221;-83
2024/01/10 05:21:39;;;;;;;23.25;11.60;;;;;;;-0.91;65.28;98830.19;5238952;22;20192;-83
2024/01/10 05:23:42;;;;;;;18.40;9.98;;;;;;;-0.94;64.99;98825.09;5239788;22;20180;-83
2024/01/10 05:25:45;;;;;;;17.65;9.55;;;;;;;-0.90;65.38;98831.88;5213239;22;20680;-85
2024/01/10 05:27:50;;;;;;;19.50;10.35;;;;;;;-0.93;65.16;98832.75;5213312;22;20195;-85
2024/01/10 05:29:52;;;;;;;20.65;9.80;;;;;;;-0.93;65.04;98826.81;5212789;22;20216;-83
2024/01/10 05:31:55;;;;;;;21.58;11.02;;;;;;;-1.04;64.81;98823.50;5213073;22;20175;-83
2024/01/10 05:33:58;;;;;;;19.58;11.15;;;;;;;-1.05;65.38;98821.81;5239652;22;20250;-83
2024/01/10 05:36:01;;;;;;;19.65;10.55;;;;;;;-1.04;65.55;98823.50;5239356;22;20171;-83
2024/01/10 05:38:05;;;;;;;16.67;10.82;;;;;;;-0.99;66.17;98832.00;5187675;22;20620;-83
2024/01/10 05:40:09;;;;;;;19.83;10.30;;;;;;;-0.93;65.89;98837.03;5239204;22;20180;-83
2024/01/10 05:42:15;;;;;;;19.15;11.02;;;;;;;-0.88;65.65;98832.72;5212106;22;20180;-84
2024/01/10 05:44:20;;;;;;;17.75;10.75;;;;;;;-0.87;65.57;98834.41;5237370;22;20171;-86
2024/01/10 05:46:23;;;;;;;18.70;9.93;;;;;;;-0.88;65.64;98833.53;5237254;22;20179;-86
2024/01/10 05:48:26;;;;;;;21.70;10.82;;;;;;;-0.85;65.80;98828.38;5183422;22;20209;-85
2024/01/10 05:50:30;;;;;;;21.17;11.75;;;;;;;-0.86;65.67;98834.41;5214078;22;20234;-86
2024/01/10 05:52:33;;;;;;;19.33;10.05;;;;;;;-0.80;65.93;98833.47;5213158;22;20180;-85
2024/01/10 05:54:36;;;;;;;20.38;10.98;;;;;;;-0.78;65.42;98834.31;5213574;22;20187;-84
2024/01/10 05:56:39;;;;;;;23.42;12.25;;;;;;;-0.83;65.67;98831.81;5213777;22;20179;-85
2024/01/10 05:58:43;;;;;;;20.50;11.05;;;;;;;-0.78;65.73;98836.88;5241282;22;20291;-85
2024/01/10 06:00:49;;;;;;;17.88;10.35;;;;;;;-0.79;65.76;98835.16;5214486;22;20268;-85
2024/01/10 06:02:53;;;;;;;22.50;12.02;;;;;;;-0.74;65.63;98831.66;5212767;22;20206;-85
2024/01/10 06:04:56;;;;;;;22.10;11.25;;;;;;;-0.77;65.81;98825.75;5240801;22;20849;-86
2024/01/10 06:06:59;;;;;;;22.30;10.73;;;;;;;-0.77;65.08;98838.53;5188101;22;20180;-85
2024/01/10 06:09:03;;;;;;;21.20;11.32;;;;;;;-0.83;65.48;98829.25;5239990;22;20530;-85
2024/01/10 06:11:08;;;;;;;19.40;10.95;;;;;;;-0.87;65.57;98822.44;5214034;22;20271;-85
2024/01/10 06:13:12;;;;;;;20.95;11.98;;;;;;;-0.89;65.94;98821.63;5214418;22;20251;-84
2024/01/10 06:15:15;;;;;;;23.05;12.52;;;;;;;-0.85;65.80;98822.44;5211658;22;20176;-83
2024/01/10 06:17:19;;;;;;;23.95;11.90;;;;;;;-0.80;65.83;98820.66;5239681;22;20460;-84
2024/01/10 06:19:22;;;;;;;20.38;11.90;;;;;;;-0.85;65.86;98820.72;5237935;22;20202;-83
2024/01/10 06:21:26;;;;;;;25.02;12.95;;;;;;;-0.84;65.70;98829.25;5211575;22;20207;-84
2024/01/10 06:23:29;;;;;;;28.48;14.95;;;;;;;-0.82;65.70;98837.75;5210862;22;20179;-84
2024/01/10 06:25:33;;;;;;;21.17;12.18;;;;;;;-0.80;65.69;98836.00;5187853;22;20176;-84
2024/01/10 06:27:39;;;;;;;24.42;12.57;;;;;;;-0.90;65.79;98831.88;5239709;22;20205;-84
2024/01/10 06:29:43;;;;;;;24.35;11.13;;;;;;;-0.87;65.83;98837.81;5213043;22;20176;-84
2024/01/10 06:31:47;;;;;;;22.10;11.63;;;;;;;-0.84;66.26;98832.66;5239498;22;20202;-84
2024/01/10 06:33:51;;;;;;;19.38;11.27;;;;;;;-0.83;66.20;98836.03;5237659;22;20202;-84
2024/01/10 06:35:55;;;;;;;22.75;11.85;;;;;;;-0.77;66.04;98841.94;5239017;22;20213;-84
2024/01/10 06:37:58;;;;;;;19.02;11.57;;;;;;;-0.76;66.29;98842.81;5212677;22;20823;-84
2024/01/10 06:40:00;;;;;;;22.42;11.88;;;;;;;-0.72;66.07;98850.44;5213631;22;20206;-83
2024/01/10 06:42:05;;;;;;;21.40;11.48;;;;;;;-0.72;66.18;98847.00;5212249;22;20874;-84
2024/01/10 06:44:09;;;;;;;23.13;11.45;;;;;;;-0.67;66.31;98852.94;5188275;22;20165;-84
2024/01/10 06:46:12;;;;;;;21.50;11.70;;;;;;;-0.65;66.58;98858.88;5239709;22;20199;-83
2024/01/10 06:48:15;;;;;;;23.10;11.20;;;;;;;-0.64;66.59;98853.72;5187922;22;20193;-83
2024/01/10 06:50:21;;;;;;;20.30;10.55;;;;;;;-0.65;66.25;98853.75;5213246;22;20179;-83
2024/01/10 06:52:24;;;;;;;19.80;11.73;;;;;;;-0.67;66.61;98851.22;5212266;22;20172;-83
2024/01/10 06:54:27;;;;;;;21.50;12.07;;;;;;;-0.69;66.46;98863.19;5213561;22;20627;-84
2024/01/10 06:56:30;;;;;;;22.15;11.73;;;;;;;-0.67;66.49;98858.88;5239781;22;20175;-83
2024/01/10 06:58:34;;;;;;;23.40;12.38;;;;;;;-0.66;65.96;98857.16;5240898;22;20171;-83
2024/01/10 07:00:38;;;;;;;20.60;11.30;;;;;;;-0.70;66.33;98856.38;5213146;22;20635;-84
2024/01/10 07:02:41;;;;;;;23.75;12.65;;;;;;;-0.71;66.27;98867.47;5239810;22;20678;-84
2024/01/10 07:04:47;;;;;;;17.95;10.60;;;;;;;-0.71;66.42;98867.47;5240628;22;20179;-84
2024/01/10 07:06:52;;;;;;;22.90;12.02;;;;;;;-0.72;66.46;98864.91;5213172;22;20600;-83
2024/01/10 07:08:55;;;;;;;21.45;12.02;;;;;;;-0.71;66.36;98857.22;5213260;22;20265;-84
2024/01/10 07:10:58;;;;;;;22.83;12.73;;;;;;;-0.71;66.31;98869.19;5240969;22;20182;-86
2024/01/10 07:13:04;;;;;;;25.73;12.80;;;;;;;-0.72;66.33;98867.47;5212239;22;20598;-86
2024/01/10 07:15:08;;;;;;;22.80;11.65;;;;;;;-0.71;66.47;98864.06;5213586;22;20260;-84
2024/01/10 07:17:11;;;;;;;24.77;12.65;;;;;;;-0.66;66.57;98865.72;5214065;22;20677;-83
2024/01/10 07:19:14;;;;;;;22.80;12.10;;;;;;;-0.62;66.51;98872.47;5213825;22;20203;-83
2024/01/10 07:21:17;;;;;;;22.25;12.63;;;;;;;-0.57;66.57;98873.28;5238575;22;20191;-86
2024/01/10 07:23:22;;;;;;;19.58;11.13;;;;;;;-0.52;66.60;98880.91;5240118;22;20254;-84
2024/01/10 07:25:26;;;;;;;23.83;12.65;;;;;;;-0.52;66.58;98876.63;5212084;22;20176;-86
2024/01/10 07:27:28;;;;;;;21.33;12.55;;;;;;;-0.49;66.35;98878.31;5187534;22;20236;-85
2024/01/10 07:29:31;;;;;;;20.77;11.75;;;;;;;-0.49;66.46;98883.44;5211435;22;20534;-86
2024/01/10 07:31:35;;;;;;;21.17;12.07;;;;;;;-0.45;66.61;98883.38;5211425;22;20239;-86
2024/01/10 07:33:38;;;;;;;26.02;12.93;;;;;;;-0.40;66.47;98882.44;5238847;22;20251;-85
2024/01/10 07:35:41;;;;;;;20.67;11.80;;;;;;;-0.41;66.31;98880.75;5187380;22;20264;-84
2024/01/10 07:37:44;;;;;;;22.52;11.65;;;;;;;-0.43;66.71;98885.03;5240348;22;20221;-84
2024/01/10 07:39:50;;;;;;;26.25;12.30;;;;;;;-0.38;66.47;98883.25;5189014;22;20500;-84
2024/01/10 07:41:53;;;;;;;27.20;14.60;;;;;;;-0.40;66.40;98871.34;5239922;22;20222;-85
2024/01/10 07:43:57;;;;;;;30.27;17.17;;;;;;;-0.44;66.80;98874.81;5188556;22;20260;-85
2024/01/10 07:46:01;;;;;;;21.40;12.35;;;;;;;-0.53;66.90;98874.06;5215073;22;20259;-84
2024/01/10 07:48:05;;;;;;;26.27;13.10;;;;;;;-0.56;66.78;98872.41;5215026;22;20234;-85
2024/01/10 07:50:09;;;;;;;19.58;11.13;;;;;;;-0.66;67.09;98869.97;5239188;22;20172;-85
2024/01/10 07:52:13;;;;;;;23.10;11.73;;;;;;;-0.72;67.18;98876.03;5187249;22;20223;-85
2024/01/10 07:54:16;;;;;;;19.17;11.00;;;;;;;-0.63;67.36;98877.59;5212044;22;20217;-83
2024/01/10 07:56:20;;;;;;;22.85;12.70;;;;;;;-0.56;67.39;98872.41;5213559;22;20515;-83
2024/01/10 07:58:24;;;;;;;23.02;12.13;;;;;;;-0.49;67.38;98880.88;5188273;22;20231;-82
2024/01/10 08:00:27;;;;;;;25.13;12.38;;;;;;;-0.44;67.85;98891.03;5214137;22;20173;-84
2024/01/10 08:02:33;;;;;;;24.50;12.02;;;;;;;-0.40;67.29;98892.66;5214588;22;20247;-84
2024/01/10 08:04:37;;;;;;;24.02;11.55;;;;;;;-0.37;67.23;98895.19;5214226;22;20274;-84
2024/01/10 08:06:40;;;;;;;22.60;12.90;;;;;;;-0.32;67.07;98895.97;5215205;22;20175;-84
2024/01/10 08:08:42;;;;;;;23.05;13.43;;;;;;;-0.28;66.92;98904.50;5214200;22;20909;-84
2024/01/10 08:10:45;;;;;;;24.50;12.90;;;;;;;-0.37;66.49;98908.00;5214918;22;20215;-84
2024/01/10 08:12:52;;;;;;;23.90;11.60;;;;;;;-0.41;66.96;98901.25;5214111;22;20187;-84
2024/01/10 08:14:55;;;;;;;19.52;11.98;;;;;;;-0.36;67.46;98907.16;5241463;22;20515;-86
2024/01/10 08:17:00;;;;;;;20.63;10.80;;;;;;;-0.38;67.54;98902.91;5188803;22;20177;-86
2024/01/10 08:19:03;;;;;;;20.95;12.00;;;;;;;-0.34;67.21;98907.97;5242413;22;20266;-84
2024/01/10 08:21:06;;;;;;;46.80;16.48;;;;;;;-0.37;67.30;98913.13;5214007;22;20675;-87
2024/01/10 08:23:10;;;;;;;29.85;14.27;;;;;;;-0.32;67.16;98921.59;5214502;22;20172;-86
2024/01/10 08:25:15;;;;;;;23.50;13.32;;;;;;;-0.37;67.58;98919.97;5215053;22;20619;-86
2024/01/10 08:27:19;;;;;;;24.10;12.00;;;;;;;-0.34;67.58;98923.34;5242111;22;20166;-86
2024/01/10 08:29:25;;;;;;;19.80;11.60;;;;;;;-0.26;67.49;98926.63;5186293;22;20649;-86
2024/01/10 08:31:29;;;;;;;23.92;13.75;;;;;;;-0.21;67.36;98924.88;5213521;22;20264;-81
2024/01/10 08:33:32;;;;;;;21.33;12.63;;;;;;;-0.19;67.37;98928.25;5237253;22;20179;-82
2024/01/10 08:35:36;;;;;;;21.48;12.52;;;;;;;-0.18;67.95;98931.66;5239083;22;20179;-81
2024/01/10 08:37:42;;;;;;;22.35;12.38;;;;;;;-0.12;67.50;98935.00;5239070;22;20179;-83
2024/01/10 08:39:45;;;;;;;25.67;12.73;;;;;;;-0.09;67.38;98934.09;5209480;22;20177;-82
2024/01/10 08:41:48;;;;;;;27.15;14.20;;;;;;;-0.04;67.11;98938.31;5238851;22;20202;-84
2024/01/10 08:43:51;;;;;;;22.88;13.93;;;;;;;-0.01;67.35;98932.31;5238098;22;20707;-80
2024/01/10 08:45:57;;;;;;;25.65;13.70;;;;;;;0.06;67.24;98947.56;5240971;22;20171;-82
2024/01/10 08:48:00;;;;;;;20.42;12.27;;;;;;;0.06;67.25;98945.00;5214550;22;20267;-81
2024/01/10 08:50:04;;;;;;;20.90;11.30;;;;;;;0.12;67.57;98943.22;5212892;22;20241;-81
2024/01/10 08:52:10;;;;;;;23.75;13.10;;;;;;;0.20;67.04;98943.09;5213532;22;20577;-82
2024/01/10 08:54:16;;;;;;;22.95;12.43;;;;;;;0.17;66.85;98948.28;5188265;22;20176;-82
2024/01/10 08:56:20;;;;;;;23.15;13.63;;;;;;;0.29;67.22;98953.22;5213472;22;20168;-81
2024/01/10 08:58:22;;;;;;;23.17;12.35;;;;;;;0.46;66.80;98945.25;5240888;22;20497;-82
2024/01/10 09:00:25;;;;;;;23.02;12.93;;;;;;;0.63;66.56;98944.97;5213801;22;20688;-82
2024/01/10 09:02:30;;;;;;;19.42;11.85;;;;;;;0.76;65.65;98949.06;5211977;22;20180;-81
2024/01/10 09:04:33;;;;;;;20.00;12.27;;;;;;;0.81;65.62;98949.81;5213827;22;20180;-81
2024/01/10 09:06:40;;;;;;;18.40;11.00;;;;;;;0.81;64.86;98950.66;5241948;22;20573;-82
2024/01/10 09:08:43;;;;;;;22.35;12.45;;;;;;;0.93;65.32;98953.88;5214078;22;20219;-81
2024/01/10 09:10:46;;;;;;;23.67;13.88;;;;;;;1.14;65.26;98960.34;5211766;22;20497;-80
2024/01/10 09:12:51;;;;;;;24.52;13.05;;;;;;;1.11;64.47;98962.97;5187264;22;20644;-80
2024/01/10 09:14:54;;;;;;;20.80;12.02;;;;;;;1.16;64.84;98964.59;5188777;22;20204;-81
2024/01/10 09:17:01;;;;;;;22.08;11.68;;;;;;;1.32;65.24;98981.41;5214492;22;20880;-81
2024/01/10 09:19:06;;;;;;;22.27;12.25;;;;;;;1.51;65.48;98973.34;5188315;22;20181;-80
2024/01/10 09:21:13;;;;;;;24.52;12.75;;;;;;;1.72;64.27;98972.94;5212089;22;20844;-80
2024/01/10 09:23:16;;;;;;;21.88;12.93;;;;;;;1.79;63.95;98974.53;5212664;22;20168;-82
2024/01/10 09:25:19;;;;;;;23.77;13.23;;;;;;;1.77;63.87;98978.00;5188145;22;20176;-80
2024/01/10 09:27:22;;;;;;;22.80;13.70;;;;;;;1.87;63.91;98971.81;5241175;22;20176;-81
2024/01/10 09:29:27;;;;;;;23.95;13.55;;;;;;;1.90;63.40;98968.28;5238897;22;20206;-82
2024/01/10 09:31:30;;;;;;;23.48;15.27;;;;;;;1.98;62.88;98980.97;5239663;22;20171;-82